Time;durP1;ratioP1;P1;durP2;ratioP2;P2;SDS_P1;SDS_P2;PMS_P1;PMS_P2;Temp;Humidity;BMP_temperature;BMP_pressure;BME280_temperature;BME280_humidity;BME280_pressure;Samples;Min_cycle;Max_cycle;Signal;HPM_P1;HPM_P2
2022/02/05 00:00:38;;;;;;;0.23;0.23;;;5.10;99.90;4.90;99917.00;;;;4956106;28;87741;-71
2022/02/05 00:03:28;;;;;;;0.23;0.23;;;5.10;99.90;4.90;99924.00;;;;4955963;28;89410;-71
2022/02/05 00:06:04;;;;;;;0.50;0.30;;;5.10;99.90;4.90;99925.00;;;;4955615;28;88480;-70
2022/02/05 00:08:51;;;;;;;0.30;0.30;;;5.10;99.90;4.90;99945.00;;;;4956050;28;87914;-71
2022/02/05 00:14:45;;;;;;;0.33;0.27;;;5.00;99.90;4.80;99949.00;;;;4961812;28;87657;-69
2022/02/05 00:20:21;;;;;;;1.17;0.37;;;4.90;99.90;4.70;99970.00;;;;4977784;28;87712;-69
2022/02/05 00:39:19;;;;;;;0.50;0.50;;;4.70;99.90;4.60;100015.00;;;;4977307;28;87564;-70
2022/02/05 00:44:12;;;;;;;0.53;0.50;;;4.70;99.90;4.60;100015.00;;;;4975781;28;89154;-69
2022/02/05 00:46:40;;;;;;;0.50;0.30;;;4.70;99.90;4.60;100022.00;;;;4958624;28;87818;-69
2022/02/05 00:49:06;;;;;;;0.30;0.30;;;4.70;99.90;4.60;100008.00;;;;4976524;28;87973;-69
2022/02/05 00:54:22;;;;;;;3.47;0.90;;;5.10;99.90;4.60;100015.00;;;;4977629;28;87992;-71
2022/02/05 00:59:17;;;;;;;2.73;0.90;;;4.70;99.90;4.60;100046.00;;;;4977076;28;105188;-68
2022/02/05 01:01:43;;;;;;;0.73;0.63;;;4.70;99.90;4.60;100036.00;;;;4978323;28;87994;-69
2022/02/05 01:04:10;;;;;;;0.90;0.83;;;4.80;99.90;4.60;100049.00;;;;4993840;28;87906;-70
2022/02/05 01:06:36;;;;;;;0.60;0.60;;;4.70;99.90;4.50;100045.00;;;;4992682;28;87583;-69
2022/02/05 01:09:07;;;;;;;2.13;0.63;;;4.70;99.90;4.50;100056.00;;;;4992472;28;88732;-68
2022/02/05 01:11:33;;;;;;;1.30;0.40;;;4.70;99.90;4.40;100058.00;;;;4978303;28;88681;-70
2022/02/05 01:14:01;;;;;;;1.73;0.70;;;4.60;99.90;4.30;100053.00;;;;4963950;28;87874;-69
2022/02/05 01:16:41;;;;;;;1.27;0.50;;;4.60;99.90;4.30;100069.00;;;;4966049;28;87741;-68
2022/02/05 01:19:09;;;;;;;0.50;0.50;;;4.50;99.90;4.20;100078.00;;;;4962973;28;88041;-68
2022/02/05 01:21:40;;;;;;;1.37;0.60;;;4.40;99.90;4.00;100078.00;;;;4976594;28;88705;-74
2022/02/05 01:24:09;;;;;;;1.43;0.63;;;4.30;99.90;3.90;100068.00;;;;4992383;28;88077;-72
2022/02/05 01:26:40;;;;;;;0.57;0.57;;;4.90;99.90;3.80;100068.00;;;;4977983;28;86997;-73
2022/02/05 01:29:20;;;;;;;0.90;0.77;;;4.00;99.90;3.70;100066.00;;;;4961745;28;88102;-71
2022/02/05 01:31:51;;;;;;;0.40;0.40;;;4.00;99.90;3.70;100074.00;;;;4957804;28;87812;-71
2022/02/05 01:34:25;;;;;;;0.50;0.50;;;3.90;99.90;3.70;100081.00;;;;4968206;28;88720;-71
2022/02/05 01:48:55;;;;;;;6.33;0.90;;;3.80;99.90;3.60;100076.00;;;;4968080;28;88047;-72
2022/02/05 01:53:12;;;;;;;1.33;0.57;;;3.90;99.90;3.80;100111.00;;;;4975535;28;87686;-70
2022/02/05 01:55:55;;;;;;;1.37;0.60;;;4.40;99.90;3.80;100112.00;;;;4990297;28;87929;-70
2022/02/05 01:58:35;;;;;;;1.60;0.60;;;4.10;99.90;3.90;100109.00;;;;4977586;28;87853;-69
2022/02/05 02:11:55;;;;;;;1.17;0.30;;;4.20;99.90;4.00;100123.00;;;;4963051;28;87433;-67
2022/02/05 02:25:11;;;;;;;2.73;1.13;;;4.30;99.90;4.20;100138.00;;;;4961182;28;107177;-67
2022/02/05 02:27:44;;;;;;;8.70;0.70;;;4.30;99.90;4.20;100137.00;;;;4956616;28;88823;-67
2022/02/05 02:30:18;;;;;;;0.90;0.40;;;4.30;99.90;4.20;100156.00;;;;4958246;28;87895;-66
2022/02/05 02:32:49;;;;;;;0.33;0.20;;;4.50;99.90;4.20;100164.00;;;;4957557;28;88096;-67
2022/02/05 02:35:23;;;;;;;3.90;0.30;;;4.40;99.90;4.20;100149.00;;;;4957567;28;87833;-66
2022/02/05 02:42:52;;;;;;;0.53;0.33;;;4.50;99.90;4.30;100171.00;;;;4954280;28;88061;-65
2022/02/05 02:45:18;;;;;;;3.03;0.60;;;4.40;99.90;4.30;100184.00;;;;4971346;28;88087;-65
2022/02/05 02:47:45;;;;;;;1.20;0.67;;;4.50;99.90;4.30;100181.00;;;;4974978;28;109166;-67
2022/02/05 02:50:28;;;;;;;0.40;0.40;;;4.50;99.90;4.40;100188.00;;;;4971164;28;87508;-69
2022/02/05 02:58:29;;;;;;;0.30;0.30;;;4.50;99.90;4.30;100200.00;;;;4954819;28;87718;-67
2022/02/05 03:00:58;;;;;;;4.43;0.50;;;4.50;99.90;4.30;100199.00;;;;4957062;28;87795;-67
2022/02/05 03:03:24;;;;;;;0.40;0.40;;;4.50;99.90;4.30;100208.00;;;;4956826;28;89081;-68
2022/02/05 03:05:50;;;;;;;0.23;0.23;;;4.50;99.90;4.30;100203.00;;;;4973649;28;102173;-67
2022/02/05 03:08:16;;;;;;;0.70;0.37;;;4.50;99.90;4.30;100204.00;;;;4975892;28;109646;-68
2022/02/05 03:10:42;;;;;;;0.27;0.27;;;4.50;99.90;4.30;100206.00;;;;4973668;28;87067;-68
2022/02/05 03:13:08;;;;;;;0.77;0.53;;;4.50;99.90;4.30;100221.00;;;;4967666;28;87748;-67
2022/02/05 03:15:39;;;;;;;6.23;0.80;;;4.50;99.90;4.30;100224.00;;;;4958619;28;116483;-69
2022/02/05 03:18:27;;;;;;;0.90;0.40;;;4.50;99.90;4.30;100221.00;;;;4970629;28;88961;-68
2022/02/05 03:20:53;;;;;;;1.43;0.87;;;4.50;99.90;4.30;100220.00;;;;4957214;28;87787;-68
2022/02/05 03:23:20;;;;;;;0.77;0.77;;;4.50;99.90;4.30;100223.00;;;;4956004;28;88913;-69
2022/02/05 03:25:45;;;;;;;2.33;0.60;;;4.40;99.90;4.30;100235.00;;;;4955839;28;117724;-69
2022/02/05 03:28:11;;;;;;;0.50;0.40;;;4.40;99.90;4.20;100232.00;;;;4955333;28;107418;-69
2022/02/05 03:30:37;;;;;;;0.93;0.60;;;4.40;99.90;4.20;100240.00;;;;4955750;28;109209;-68
2022/02/05 03:33:03;;;;;;;2.20;0.67;;;4.40;99.90;4.20;100243.00;;;;4965406;28;88575;-68
2022/02/05 03:35:28;;;;;;;1.70;0.67;;;4.40;99.90;4.20;100239.00;;;;4975946;28;117754;-69
2022/02/05 03:37:54;;;;;;;4.73;0.70;;;4.40;99.90;4.20;100239.00;;;;4975016;28;110148;-69
2022/02/05 03:40:20;;;;;;;0.80;0.70;;;4.40;99.90;4.20;100236.00;;;;4972278;28;87949;-69
2022/02/05 03:42:46;;;;;;;2.00;0.67;;;4.40;99.90;4.10;100248.00;;;;4955327;28;89583;-69
2022/02/05 03:45:12;;;;;;;1.33;1.20;;;4.30;99.90;4.00;100244.00;;;;4970910;28;88094;-69
2022/02/05 03:47:38;;;;;;;1.40;0.93;;;4.20;99.90;3.90;100245.00;;;;4957061;28;87622;-69
2022/02/05 03:50:05;;;;;;;0.77;0.77;;;4.10;99.90;3.80;100256.00;;;;4955540;28;109462;-69
2022/02/05 03:52:31;;;;;;;1.10;0.70;;;4.00;99.90;3.70;100255.00;;;;4970447;28;88914;-69
2022/02/05 03:54:57;;;;;;;1.80;1.13;;;3.90;99.90;3.60;100266.00;;;;4956158;28;88718;-69
2022/02/05 03:57:23;;;;;;;1.10;0.90;;;3.90;99.90;3.60;100271.00;;;;4955367;28;87840;-69
2022/02/05 03:59:50;;;;;;;3.60;1.40;;;3.80;99.90;3.60;100270.00;;;;4956290;28;108710;-68
2022/02/05 04:02:16;;;;;;;1.47;1.10;;;3.80;99.90;3.70;100279.00;;;;4955636;28;88730;-70
2022/02/05 04:04:42;;;;;;;2.33;0.63;;;3.80;99.90;3.70;100276.00;;;;4973090;28;88203;-69
2022/02/05 04:07:08;;;;;;;5.50;1.10;;;3.90;99.90;3.70;100272.00;;;;4975165;28;88739;-70
2022/02/05 04:09:41;;;;;;;1.17;0.70;;;3.90;99.90;3.70;100278.00;;;;4965420;28;87746;-70
2022/02/05 04:17:38;;;;;;;3.10;1.23;;;3.90;99.90;3.70;100292.00;;;;4975268;28;87750;-69
2022/02/05 04:20:04;;;;;;;2.50;0.63;;;3.90;99.90;3.70;100284.00;;;;4973717;28;108982;-69
2022/02/05 04:22:30;;;;;;;2.07;0.73;;;3.90;99.90;3.70;100297.00;;;;4974711;28;98810;-69
2022/02/05 04:24:56;;;;;;;2.70;0.80;;;3.90;99.90;3.70;100299.00;;;;4963506;28;116857;-69
2022/02/05 04:27:22;;;;;;;6.67;1.47;;;3.90;99.90;3.70;100291.00;;;;4954610;28;109760;-68
2022/02/05 04:29:48;;;;;;;1.53;0.90;;;3.90;99.90;3.70;100290.00;;;;4954852;28;106720;-69
2022/02/05 04:32:14;;;;;;;6.97;1.03;;;3.90;99.90;3.70;100291.00;;;;4955571;28;88799;-68
2022/02/05 04:34:41;;;;;;;4.23;1.30;;;3.90;99.90;3.70;100296.00;;;;4969445;28;89179;-68
2022/02/05 04:37:07;;;;;;;3.77;0.97;;;3.90;99.90;3.60;100301.00;;;;4958770;28;96610;-68
2022/02/05 04:39:34;;;;;;;3.33;1.20;;;3.80;99.90;3.60;100295.00;;;;4966322;28;87705;-69
2022/02/05 04:42:14;;;;;;;1.90;0.90;;;3.90;99.90;3.60;100290.00;;;;4955274;28;87610;-69
2022/02/05 04:45:14;;;;;;;2.63;1.00;;;3.80;99.90;3.60;100286.00;;;;4970236;28;88376;-69
2022/02/05 04:53:35;;;;;;;1.10;1.00;;;3.80;99.90;3.70;100292.00;;;;4949705;28;87633;-69
2022/02/05 05:01:26;;;;;;;1.53;1.20;;;3.80;99.90;3.70;100306.00;;;;4976805;28;87669;-70
2022/02/05 05:04:17;;;;;;;1.67;1.40;;;3.90;99.90;3.70;100316.00;;;;4978035;28;87738;-68
2022/02/05 05:09:27;;;;;;;0.70;0.70;;;3.90;99.90;3.70;100319.00;;;;4957829;28;87760;-68
2022/02/05 05:12:16;;;;;;;2.83;1.03;;;3.90;99.90;3.70;100303.00;;;;4958937;28;87583;-70
2022/02/05 05:20:07;;;;;;;3.80;0.80;;;3.90;99.90;3.70;100314.00;;;;4956600;28;87976;-68
2022/02/05 05:22:32;;;;;;;7.67;1.47;;;3.90;99.90;3.70;100326.00;;;;4958135;28;93163;-69
2022/02/05 05:25:00;;;;;;;2.33;1.33;;;4.30;99.90;3.70;100324.00;;;;4957432;28;119427;-69
2022/02/05 05:27:27;;;;;;;2.50;1.23;;;4.80;99.90;3.60;100324.00;;;;4957057;28;89697;-69
2022/02/05 05:29:53;;;;;;;3.53;1.33;;;3.90;99.90;3.60;100318.00;;;;4973404;28;87823;-68
2022/02/05 05:32:19;;;;;;;1.97;1.47;;;3.80;99.90;3.50;100330.00;;;;4978402;28;87813;-68
2022/02/05 05:34:44;;;;;;;1.40;0.77;;;3.70;99.90;3.40;100320.00;;;;4964451;28;117788;-67
2022/02/05 05:37:10;;;;;;;2.43;1.47;;;3.70;99.90;3.30;100326.00;;;;4957634;28;117546;-69
2022/02/05 05:39:38;;;;;;;2.63;1.10;;;3.50;99.90;3.30;100331.00;;;;4966498;28;87773;-69
2022/02/05 05:42:08;;;;;;;1.77;1.40;;;3.60;99.90;3.30;100339.00;;;;4978256;28;86906;-69
2022/02/05 05:47:17;;;;;;;1.30;1.20;;;3.40;99.90;3.20;100334.00;;;;4969671;28;107415;-68
2022/02/05 05:49:57;;;;;;;2.43;1.37;;;3.40;99.90;3.10;100331.00;;;;4957259;28;88992;-69
2022/02/05 05:52:24;;;;;;;1.73;0.93;;;3.30;99.90;3.00;100326.00;;;;4958588;28;88171;-69
2022/02/05 05:54:50;;;;;;;1.00;0.90;;;3.30;99.90;3.00;100337.00;;;;4957612;28;88580;-69
2022/02/05 05:57:16;;;;;;;2.50;1.30;;;3.20;99.90;3.00;100344.00;;;;4956890;28;117371;-69
2022/02/05 05:59:43;;;;;;;1.90;1.10;;;3.20;99.90;2.90;100341.00;;;;4971707;28;88624;-69
2022/02/05 06:02:10;;;;;;;2.57;1.40;;;3.10;99.90;2.90;100348.00;;;;4974815;28;107193;-69
2022/02/05 06:04:37;;;;;;;1.60;1.10;;;3.10;99.90;2.90;100356.00;;;;4977211;28;94420;-70
2022/02/05 06:07:03;;;;;;;1.40;1.30;;;3.10;99.90;2.90;100335.00;;;;4977835;28;90207;-68
2022/02/05 06:09:29;;;;;;;1.27;1.17;;;3.10;99.90;2.90;100351.00;;;;4975979;28;87779;-68
2022/02/05 06:11:55;;;;;;;1.77;1.40;;;3.00;99.90;3.00;100358.00;;;;4977105;28;109134;-69
2022/02/05 06:14:25;;;;;;;2.60;1.40;;;3.20;99.90;3.00;100362.00;;;;4961617;28;118784;-68
2022/02/05 06:16:57;;;;;;;2.77;1.47;;;3.30;99.90;3.10;100369.00;;;;4976856;28;90050;-68
2022/02/05 06:19:23;;;;;;;1.13;1.00;;;3.20;99.90;3.10;100370.00;;;;4977546;28;87667;-68
2022/02/05 06:21:48;;;;;;;2.00;1.53;;;3.30;99.90;3.10;100370.00;;;;4977226;28;98892;-68
2022/02/05 06:24:14;;;;;;;1.33;1.10;;;3.30;99.90;3.20;100372.00;;;;4975895;28;117882;-71
2022/02/05 06:26:40;;;;;;;1.53;1.40;;;3.40;99.90;3.20;100370.00;;;;4976632;28;88597;-68
2022/02/05 06:29:06;;;;;;;1.53;1.00;;;3.30;99.90;3.20;100371.00;;;;4967866;28;87858;-69
2022/02/05 06:31:32;;;;;;;3.97;1.80;;;3.30;99.90;3.20;100383.00;;;;4963754;28;87041;-69
2022/02/05 06:33:57;;;;;;;2.47;1.33;;;3.40;99.90;3.20;100383.00;;;;4956424;28;118422;-68
2022/02/05 06:36:23;;;;;;;3.27;1.40;;;3.40;99.90;3.20;100395.00;;;;4956183;28;116836;-68
2022/02/05 06:38:49;;;;;;;4.87;1.70;;;3.50;99.90;3.30;100399.00;;;;4956516;28;110339;-68
2022/02/05 06:41:15;;;;;;;3.87;1.23;;;3.40;99.90;3.30;100415.00;;;;4954823;28;87696;-69
2022/02/05 06:43:41;;;;;;;5.03;2.47;;;3.50;99.90;3.40;100406.00;;;;4963284;28;94966;-69
2022/02/05 06:46:07;;;;;;;0.87;0.87;;;3.60;99.90;3.40;100409.00;;;;4956642;28;88560;-69
2022/02/05 06:48:33;;;;;;;3.30;1.03;;;3.50;99.90;3.40;100414.00;;;;4968781;28;88271;-69
2022/02/05 06:50:59;;;;;;;1.60;1.20;;;3.60;99.90;3.50;100403.00;;;;4987960;28;108858;-68
2022/02/05 06:53:24;;;;;;;5.03;1.70;;;3.60;99.90;3.50;100418.00;;;;4972622;28;118943;-69
2022/02/05 06:55:50;;;;;;;1.53;1.37;;;3.60;99.90;3.50;100422.00;;;;4972277;28;116987;-70
2022/02/05 06:58:16;;;;;;;1.70;1.27;;;3.70;99.90;3.50;100417.00;;;;4969887;28;110515;-69
2022/02/05 07:00:42;;;;;;;2.83;1.50;;;3.70;99.90;3.60;100422.00;;;;4962698;28;94729;-68
2022/02/05 07:03:10;;;;;;;2.50;1.70;;;3.80;99.90;3.60;100418.00;;;;4987697;28;103968;-69
2022/02/05 07:05:36;;;;;;;5.40;1.50;;;3.90;99.90;3.60;100434.00;;;;4965484;28;89966;-68
2022/02/05 07:08:02;;;;;;;1.20;1.10;;;3.80;99.90;3.70;100441.00;;;;4968256;28;87810;-70
2022/02/05 07:10:28;;;;;;;2.87;1.07;;;3.80;99.90;3.70;100422.00;;;;4969756;28;87964;-70
2022/02/05 07:13:15;;;;;;;4.10;1.33;;;3.80;99.90;3.70;100439.00;;;;4972133;28;116209;-69
2022/02/05 07:15:52;;;;;;;1.57;1.27;;;3.80;99.90;3.70;100440.00;;;;4973297;28;88248;-69
2022/02/05 07:18:28;;;;;;;4.17;1.30;;;3.90;99.90;3.70;100435.00;;;;4980040;28;88307;-69
2022/02/05 07:21:04;;;;;;;4.80;1.67;;;3.90;99.90;3.70;100441.00;;;;4973465;28;87014;-69
2022/02/05 07:31:30;;;;;;;9.43;3.50;;;3.90;99.90;3.80;100458.00;;;;4970683;28;87683;-70
2022/02/05 07:33:55;;;;;;;3.30;1.90;;;3.90;99.90;3.80;100442.00;;;;4970012;28;117716;-69
2022/02/05 07:36:21;;;;;;;3.17;1.50;;;3.80;99.90;3.80;100460.00;;;;4972525;28;116601;-70
2022/02/05 07:38:47;;;;;;;2.57;1.20;;;4.00;99.90;3.80;100456.00;;;;4984173;28;98235;-70
2022/02/05 07:41:13;;;;;;;1.97;1.53;;;4.00;99.90;3.80;100457.00;;;;4969700;28;87992;-70
2022/02/05 07:43:39;;;;;;;1.43;1.00;;;4.00;99.90;3.80;100463.00;;;;4970672;28;117944;-68
2022/02/05 07:46:08;;;;;;;2.60;1.60;;;4.10;99.90;3.90;100476.00;;;;4971823;28;87943;-68
2022/02/05 07:48:34;;;;;;;2.60;1.37;;;4.00;99.90;4.00;100471.00;;;;4964943;28;90626;-68
2022/02/05 07:51:00;;;;;;;2.33;1.63;;;4.10;99.90;4.00;100469.00;;;;4987086;28;87852;-70
2022/02/05 07:53:27;;;;;;;3.73;1.30;;;4.20;99.90;4.10;100472.00;;;;4985320;28;118326;-69
2022/02/05 07:55:54;;;;;;;2.33;1.50;;;4.20;99.90;4.20;100467.00;;;;4972581;28;89772;-69
2022/02/05 07:58:20;;;;;;;7.83;2.63;;;4.30;99.90;4.20;100478.00;;;;4970325;28;87755;-69
2022/02/05 08:00:47;;;;;;;3.63;1.70;;;4.30;99.90;4.20;100476.00;;;;4970702;28;108002;-70
2022/02/05 08:03:13;;;;;;;2.50;1.70;;;4.40;99.90;4.20;100480.00;;;;4972440;28;88444;-69
2022/02/05 08:05:39;;;;;;;4.47;1.87;;;4.40;99.90;4.30;100481.00;;;;4968488;28;88526;-69
2022/02/05 08:08:09;;;;;;;5.10;1.53;;;4.40;99.90;4.30;100475.00;;;;4987369;28;89838;-69
2022/02/05 08:10:39;;;;;;;7.80;2.63;;;4.50;99.90;4.30;100479.00;;;;4972439;28;87470;-70
2022/02/05 08:13:05;;;;;;;3.80;2.17;;;4.50;99.90;4.30;100490.00;;;;4967118;28;88374;-69
2022/02/05 08:15:31;;;;;;;2.27;1.50;;;4.50;99.90;4.30;100485.00;;;;4972598;28;88811;-70
2022/02/05 08:17:58;;;;;;;3.00;1.83;;;4.50;99.90;4.30;100487.00;;;;4971255;28;88832;-69
2022/02/05 08:20:24;;;;;;;3.77;1.43;;;4.50;99.90;4.40;100502.00;;;;4971714;28;87472;-69
2022/02/05 08:22:50;;;;;;;2.13;1.80;;;4.60;99.90;4.40;100498.00;;;;4971319;28;112035;-69
2022/02/05 08:25:17;;;;;;;1.57;1.47;;;4.50;99.90;4.40;100511.00;;;;4967309;28;87818;-69
2022/02/05 08:27:44;;;;;;;3.17;1.43;;;4.60;99.90;4.50;100521.00;;;;4987647;28;87898;-70
2022/02/05 08:30:12;;;;;;;7.07;1.23;;;4.60;99.90;4.50;100511.00;;;;4969469;28;87811;-69
2022/02/05 08:32:39;;;;;;;7.40;1.40;;;4.70;99.90;4.60;100521.00;;;;4973601;28;88439;-70
2022/02/05 08:35:07;;;;;;;4.00;1.53;;;4.70;99.90;4.60;100529.00;;;;4967785;28;87640;-70
2022/02/05 08:37:40;;;;;;;3.83;1.83;;;4.70;99.90;4.60;100525.00;;;;4975839;28;87984;-68
2022/02/05 08:40:07;;;;;;;1.77;1.50;;;4.80;99.90;4.60;100529.00;;;;4972762;28;87570;-67
2022/02/05 08:42:33;;;;;;;5.20;1.67;;;4.80;99.90;4.70;100518.00;;;;4974727;28;89470;-68
2022/02/05 08:44:59;;;;;;;1.00;0.93;;;4.70;99.90;4.70;100548.00;;;;4967606;28;116022;-68
2022/02/05 08:47:25;;;;;;;4.87;1.73;;;4.80;99.90;4.70;100527.00;;;;4974717;28;92082;-68
2022/02/05 08:49:52;;;;;;;3.90;1.97;;;4.80;99.90;4.80;100534.00;;;;4972236;28;100363;-69
2022/02/05 08:52:18;;;;;;;2.73;1.37;;;4.90;99.90;4.80;100538.00;;;;4973257;28;89812;-69
2022/02/05 08:54:45;;;;;;;2.77;1.33;;;5.00;99.90;4.80;100550.00;;;;4975425;28;87878;-69
2022/02/05 08:57:11;;;;;;;1.37;1.13;;;4.90;99.90;4.90;100545.00;;;;4975197;28;87711;-70
2022/02/05 08:59:52;;;;;;;5.30;1.53;;;5.00;99.90;4.90;100555.00;;;;4981255;28;86895;-70
2022/02/05 09:02:26;;;;;;;5.00;1.20;;;4.90;99.90;4.90;100574.00;;;;4974338;28;88007;-70
2022/02/05 09:05:04;;;;;;;7.37;1.50;;;5.10;99.90;4.90;100571.00;;;;4973135;28;91081;-69
2022/02/05 09:07:29;;;;;;;6.90;1.43;;;5.10;99.90;4.90;100570.00;;;;4973061;28;88909;-69
2022/02/05 09:15:07;;;;;;;7.10;1.87;;;5.00;99.90;4.60;100588.00;;;;4965071;28;88098;-69
2022/02/05 09:17:34;;;;;;;2.37;1.37;;;4.80;99.90;4.60;100593.00;;;;4974122;28;96019;-69
2022/02/05 09:20:00;;;;;;;1.50;1.40;;;4.80;99.90;4.40;100582.00;;;;4971326;28;87927;-70
2022/02/05 09:22:28;;;;;;;4.73;1.83;;;4.70;99.90;4.30;100612.00;;;;4973222;28;117522;-70
2022/02/05 09:24:56;;;;;;;2.40;1.60;;;4.60;99.90;4.20;100609.00;;;;4972790;28;87087;-70
2022/02/05 09:27:22;;;;;;;0.97;0.80;;;4.50;99.90;4.10;100611.00;;;;4975441;28;87804;-73
2022/02/05 09:32:22;;;;;;;1.13;0.80;;;3.80;99.90;3.60;100621.00;;;;4972457;28;89415;-75
2022/02/05 09:34:48;;;;;;;1.70;0.70;;;4.00;99.90;3.40;100610.00;;;;4973350;28;118101;-74
2022/02/05 09:37:14;;;;;;;0.53;0.30;;;3.80;99.90;3.30;100596.00;;;;4973969;28;87935;-70
2022/02/05 09:39:40;;;;;;;0.43;0.40;;;3.60;99.90;3.10;100628.00;;;;4971745;28;107267;-69
2022/02/05 09:42:06;;;;;;;4.53;0.57;;;3.50;99.90;3.00;100619.00;;;;4974399;28;88415;-69
2022/02/05 09:44:32;;;;;;;2.43;0.83;;;3.30;99.90;2.80;100626.00;;;;4973604;28;102306;-68
2022/02/05 09:46:58;;;;;;;5.43;1.00;;;3.20;99.90;2.70;100637.00;;;;4972199;28;87767;-68
2022/02/05 09:49:27;;;;;;;3.80;1.20;;;3.00;99.90;2.90;100644.00;;;;4965198;28;86847;-69
2022/02/05 09:52:12;;;;;;;3.37;1.10;;;3.00;99.90;3.20;100651.00;;;;4972164;28;88001;-70
2022/02/05 09:54:40;;;;;;;1.40;1.00;;;3.30;99.90;3.20;100647.00;;;;4974061;28;87920;-69
2022/02/05 09:57:07;;;;;;;1.13;0.67;;;3.40;99.90;3.30;100648.00;;;;4974238;28;88746;-69
2022/02/05 09:59:58;;;;;;;0.77;0.77;;;3.50;99.90;3.20;100657.00;;;;4972365;28;108920;-68
2022/02/05 10:02:31;;;;;;;1.00;0.67;;;3.50;99.90;3.20;100640.00;;;;4988245;28;87728;-69
2022/02/05 10:05:11;;;;;;;6.33;0.80;;;3.50;99.90;3.20;100647.00;;;;4984188;28;88113;-68
2022/02/05 10:08:03;;;;;;;0.50;0.50;;;3.50;99.90;3.30;100652.00;;;;4971784;28;89547;-69
2022/02/05 10:10:38;;;;;;;2.27;0.87;;;3.50;99.90;3.30;100657.00;;;;4971674;28;88174;-68
2022/02/05 10:13:19;;;;;;;1.40;0.67;;;3.50;99.90;3.40;100661.00;;;;4974473;28;88269;-67
2022/02/05 10:15:51;;;;;;;0.80;0.80;;;3.60;99.90;3.60;100648.00;;;;4988453;28;87054;-68
2022/02/05 10:18:29;;;;;;;1.23;1.10;;;3.70;99.90;3.70;100656.00;;;;4971555;28;89092;-68
2022/02/05 10:21:24;;;;;;;2.40;0.97;;;3.80;99.90;3.80;100665.00;;;;4988898;28;87705;-68
2022/02/05 10:24:00;;;;;;;1.83;0.93;;;4.00;99.90;3.90;100663.00;;;;4966921;28;88960;-67
2022/02/05 10:26:32;;;;;;;1.03;0.80;;;4.10;99.90;4.00;100664.00;;;;4974095;28;89643;-68
2022/02/05 10:29:09;;;;;;;1.00;1.00;;;4.70;99.90;4.20;100654.00;;;;4973331;28;87972;-68
2022/02/05 10:32:13;;;;;;;2.47;1.20;;;4.30;99.90;4.30;100661.00;;;;4984150;28;87816;-67
2022/02/05 10:37:25;;;;;;;2.03;1.60;;;4.50;99.90;4.40;100668.00;;;;4987395;28;87949;-68
2022/02/05 10:45:11;;;;;;;3.03;1.23;;;5.00;99.90;5.50;100669.00;;;;4969806;28;88017;-67
2022/02/05 10:48:03;;;;;;;1.93;1.10;;;5.40;99.90;5.60;100665.00;;;;4973008;28;91343;-70
2022/02/05 10:50:35;;;;;;;2.37;1.20;;;5.70;99.90;5.60;100662.00;;;;4971096;28;94255;-69
2022/02/05 10:53:14;;;;;;;5.50;1.00;;;5.70;99.90;5.60;100667.00;;;;4971157;28;87770;-68
2022/02/05 10:58:22;;;;;;;4.80;1.70;;;5.80;99.90;5.60;100668.00;;;;4971869;28;87774;-69
2022/02/05 11:06:00;;;;;;;2.37;1.70;;;5.70;99.90;5.60;100680.00;;;;4971091;28;87793;-71
2022/02/05 11:08:27;;;;;;;4.87;1.87;;;5.80;99.90;5.60;100663.00;;;;4988207;28;87014;-71
2022/02/05 11:13:59;;;;;;;1.57;1.10;;;5.50;99.90;5.60;100658.00;;;;4971706;28;87668;-70
2022/02/05 11:19:10;;;;;;;7.57;1.90;;;5.80;99.90;5.60;100666.00;;;;4966334;28;88362;-69
2022/02/05 11:21:36;;;;;;;2.33;0.90;;;5.80;99.90;5.60;100674.00;;;;4972918;28;87707;-67
2022/02/05 11:24:06;;;;;;;1.93;0.80;;;5.80;99.90;5.60;100659.00;;;;4982744;28;109196;-69
2022/02/05 11:26:33;;;;;;;2.13;1.23;;;5.80;99.90;5.60;100660.00;;;;4967326;28;88599;-68
2022/02/05 11:29:04;;;;;;;1.60;1.03;;;5.80;99.90;5.60;100656.00;;;;4987569;28;88532;-70
2022/02/05 11:31:37;;;;;;;2.73;1.20;;;5.80;99.90;5.70;100679.00;;;;4973070;28;88056;-69
2022/02/05 11:34:37;;;;;;;2.27;1.10;;;5.80;99.90;5.70;100656.00;;;;4987304;28;87501;-69
2022/02/05 11:37:10;;;;;;;3.30;1.47;;;5.80;99.90;5.80;100663.00;;;;4983880;28;88105;-69
2022/02/05 11:39:51;;;;;;;4.77;1.00;;;5.90;99.90;5.90;100665.00;;;;4968587;28;88964;-68
2022/02/05 11:42:29;;;;;;;5.63;1.10;;;6.00;99.90;5.90;100663.00;;;;4969860;28;88899;-70
2022/02/05 11:44:59;;;;;;;5.60;1.20;;;6.00;99.90;5.90;100655.00;;;;4966878;28;87492;-70
2022/02/05 11:47:30;;;;;;;3.63;1.10;;;6.00;99.90;5.90;100650.00;;;;4983281;28;88076;-70
2022/02/05 11:49:56;;;;;;;2.30;1.47;;;6.10;99.90;6.00;100655.00;;;;4969737;28;87980;-70
2022/02/05 11:52:37;;;;;;;3.07;1.20;;;6.10;99.90;6.20;100654.00;;;;4972340;28;87785;-70
2022/02/05 11:55:14;;;;;;;1.63;0.80;;;6.30;99.90;6.30;100648.00;;;;4965844;28;87994;-71
2022/02/05 11:57:44;;;;;;;6.03;1.03;;;6.40;99.90;6.30;100658.00;;;;4951074;28;88026;-69
2022/02/05 12:00:24;;;;;;;1.77;0.90;;;6.50;99.90;6.40;100641.00;;;;4970229;28;87750;-69
2022/02/05 12:03:00;;;;;;;3.47;1.20;;;6.50;98.20;6.50;100641.00;;;;4971943;28;87703;-68
2022/02/05 12:05:35;;;;;;;2.63;1.43;;;6.60;98.80;6.50;100656.00;;;;4973336;28;87831;-70
2022/02/05 12:08:03;;;;;;;1.80;0.63;;;6.60;96.10;6.40;100659.00;;;;4969779;28;88771;-70
2022/02/05 12:10:48;;;;;;;0.87;0.73;;;6.50;96.00;6.40;100668.00;;;;4971905;28;104392;-69
2022/02/05 12:13:20;;;;;;;4.73;1.10;;;6.50;96.20;6.40;100663.00;;;;4972854;28;88103;-70
2022/02/05 12:15:54;;;;;;;1.20;0.97;;;6.50;95.90;6.30;100672.00;;;;4971475;28;87993;-71
2022/02/05 12:18:25;;;;;;;1.80;1.17;;;6.50;97.40;6.10;100676.00;;;;4970082;28;90132;-72
2022/02/05 12:26:08;;;;;;;1.93;0.73;;;6.00;99.90;5.60;100680.00;;;;4970633;28;87104;-70
2022/02/05 12:28:39;;;;;;;2.50;1.00;;;5.90;99.90;5.60;100681.00;;;;4971096;28;97724;-70
2022/02/05 12:31:26;;;;;;;4.50;1.03;;;5.80;99.90;5.60;100676.00;;;;4969504;28;103744;-69
2022/02/05 12:34:21;;;;;;;1.00;0.50;;;5.80;99.90;5.60;100675.00;;;;4969527;28;88743;-69
2022/02/05 12:36:54;;;;;;;0.87;0.70;;;5.80;99.90;5.70;100683.00;;;;4956755;28;95455;-72
2022/02/05 12:39:24;;;;;;;3.50;0.73;;;5.80;99.90;5.70;100683.00;;;;4964814;28;88113;-70
2022/02/05 12:42:07;;;;;;;2.60;0.97;;;5.80;99.90;5.70;100664.00;;;;4971841;28;87940;-70
2022/02/05 12:44:37;;;;;;;1.40;0.57;;;5.90;98.40;5.80;100672.00;;;;4970053;28;87987;-69
2022/02/05 12:47:20;;;;;;;5.50;0.93;;;5.90;97.90;6.00;100664.00;;;;4965157;28;87961;-69
2022/02/05 12:49:55;;;;;;;1.10;0.90;;;6.00;98.30;6.00;100661.00;;;;4951438;28;88770;-70
2022/02/05 12:52:28;;;;;;;1.17;0.73;;;5.60;98.40;6.10;100662.00;;;;4968823;28;88209;-68
2022/02/05 12:54:57;;;;;;;2.03;1.20;;;6.20;98.20;6.10;100668.00;;;;4982206;28;87943;-69
2022/02/05 12:57:24;;;;;;;3.13;1.07;;;6.20;98.10;6.10;100673.00;;;;4971927;28;87844;-68
2022/02/05 12:59:50;;;;;;;1.27;1.00;;;6.20;95.60;6.10;100679.00;;;;4970100;28;88874;-68
2022/02/05 13:02:18;;;;;;;2.23;1.00;;;6.30;95.80;6.00;100677.00;;;;4968142;28;87989;-68
2022/02/05 13:04:55;;;;;;;1.53;1.00;;;6.10;96.70;5.90;100681.00;;;;4968250;28;87867;-69
2022/02/05 13:07:23;;;;;;;1.63;1.20;;;6.10;97.90;5.90;100666.00;;;;4971851;28;87670;-69
2022/02/05 13:10:03;;;;;;;0.83;0.77;;;6.00;98.40;6.00;100676.00;;;;4970602;28;89034;-69
2022/02/05 13:12:41;;;;;;;0.77;0.77;;;6.10;98.20;6.10;100664.00;;;;4970947;28;88551;-67
2022/02/05 13:15:24;;;;;;;1.00;0.73;;;6.20;94.70;6.10;100660.00;;;;4981000;28;87941;-69
2022/02/05 13:34:19;;;;;;;1.53;0.67;;;7.00;90.20;6.90;100668.00;;;;4967649;28;87827;-69
2022/02/05 13:37:14;;;;;;;3.80;1.90;;;7.00;89.60;6.90;100675.00;;;;4967545;28;87886;-69
2022/02/05 13:39:53;;;;;;;3.20;1.50;;;7.00;90.00;6.80;100668.00;;;;4971781;28;87486;-69
2022/02/05 13:42:28;;;;;;;2.13;0.97;;;6.90;88.00;6.70;100671.00;;;;4975199;28;87963;-69
2022/02/05 13:45:00;;;;;;;4.20;0.73;;;6.90;88.80;6.70;100674.00;;;;4975238;28;88805;-69
2022/02/05 13:47:48;;;;;;;3.50;0.93;;;6.80;88.40;6.60;100672.00;;;;4965363;28;88112;-69
2022/02/05 13:50:23;;;;;;;2.30;0.90;;;6.80;87.80;6.60;100670.00;;;;4954932;28;88196;-69
2022/02/05 13:52:58;;;;;;;2.37;1.00;;;6.80;87.10;6.70;100659.00;;;;4969925;28;89800;-69
2022/02/05 13:55:40;;;;;;;3.40;0.67;;;6.80;88.60;6.70;100671.00;;;;4967333;28;90870;-69
2022/02/05 13:58:10;;;;;;;1.53;0.70;;;6.60;88.20;6.70;100669.00;;;;4971814;28;87789;-69